Time;durP1;ratioP1;P1;durP2;ratioP2;P2;SDS_P1;SDS_P2;PMS_P1;PMS_P2;Temp;Humidity;BMP_temperature;BMP_pressure;BME280_temperature;BME280_humidity;BME280_pressure;Samples;Min_cycle;Max_cycle;Signal;HPM_P1;HPM_P2
2022/01/03 00:00:24;;;;;;;116.65;29.05;;;;;;;3.69;100.00;101109.78;6232469;23;20013;-86
2022/01/03 00:02:52;;;;;;;82.78;29.30;;;;;;;3.94;100.00;101120.28;6228273;23;20040;-88
2022/01/03 00:05:31;;;;;;;69.70;27.75;;;;;;;3.98;100.00;101126.13;6229669;23;20004;-84
2022/01/03 00:08:00;;;;;;;130.45;28.08;;;;;;;3.92;100.00;101123.94;6224219;23;20099;-86
2022/01/03 00:10:33;;;;;;;143.82;28.02;;;;;;;3.67;100.00;101108.22;6207139;23;20019;-86
2022/01/03 00:13:07;;;;;;;89.10;28.35;;;;;;;3.78;100.00;101114.38;6229158;23;20070;-87
2022/01/03 00:15:39;;;;;;;216.50;30.45;;;;;;;3.73;100.00;101111.25;6233156;23;20009;-84
2022/01/03 00:18:09;;;;;;;325.70;28.30;;;;;;;3.61;100.00;101110.28;6227885;23;20493;-83
2022/01/03 00:20:40;;;;;;;72.82;25.10;;;;;;;3.63;100.00;101100.56;6234883;23;20009;-84
2022/01/03 00:23:09;;;;;;;193.95;27.55;;;;;;;3.64;100.00;101102.25;6233910;23;20013;-85
2022/01/03 00:25:42;;;;;;;137.98;24.08;;;;;;;3.51;100.00;101121.53;6234006;23;20043;-84
2022/01/03 00:28:40;;;;;;;95.85;25.67;;;;;;;3.58;100.00;101105.25;6232944;23;20013;-85
2022/01/03 00:31:09;;;;;;;156.60;25.70;;;;;;;3.72;100.00;101098.25;6233886;23;20018;-85
2022/01/03 00:33:37;;;;;;;245.77;26.35;;;;;;;3.43;100.00;101098.44;6221910;23;20016;-86
2022/01/03 00:36:05;;;;;;;120.22;26.33;;;;;;;3.46;100.00;101095.59;6227197;23;20171;-90
2022/01/03 00:38:35;;;;;;;121.45;25.92;;;;;;;3.37;100.00;101101.47;6229393;23;20016;-90
2022/01/03 00:41:04;;;;;;;95.68;25.23;;;;;;;3.53;100.00;101093.41;6228075;23;20047;-90
2022/01/03 00:43:34;;;;;;;85.63;24.13;;;;;;;3.59;100.00;101101.72;6202543;23;20017;-89
2022/01/03 00:46:00;;;;;;;204.85;26.40;;;;;;;3.45;100.00;101100.94;6270082;22;20063;-89
2022/01/03 00:48:32;;;;;;;223.75;24.67;;;;;;;3.67;100.00;101088.09;6288008;22;20450;-86
2022/01/03 00:51:02;;;;;;;228.75;25.52;;;;;;;3.51;100.00;101076.97;6291092;22;20008;-83
2022/01/03 00:53:43;;;;;;;217.68;25.33;;;;;;;3.26;100.00;101085.63;6236496;23;20070;-86
2022/01/03 00:56:29;;;;;;;118.70;24.60;;;;;;;3.34;100.00;101103.44;6202510;23;20009;-87
2022/01/03 00:59:25;;;;;;;270.38;26.80;;;;;;;3.03;100.00;101104.63;6229540;23;20025;-86
2022/01/03 01:02:02;;;;;;;105.85;24.50;;;;;;;3.16;100.00;101105.50;6228591;23;20023;-87
2022/01/03 01:04:30;;;;;;;96.50;22.55;;;;;;;3.23;100.00;101105.94;6200759;23;20027;-87
2022/01/03 01:06:59;;;;;;;83.85;22.42;;;;;;;3.22;100.00;101128.66;6229552;23;20081;-87
2022/01/03 01:09:27;;;;;;;52.75;23.75;;;;;;;3.00;100.00;101128.38;6227525;23;20542;-90
2022/01/03 01:12:00;;;;;;;124.07;24.60;;;;;;;2.85;100.00;101121.53;6226392;23;20436;-84
2022/01/03 01:14:38;;;;;;;65.68;23.83;;;;;;;2.72;100.00;101124.06;6200363;23;20012;-84
2022/01/03 01:17:33;;;;;;;108.50;24.77;;;;;;;2.80;100.00;101147.16;6229121;23;20016;-85
2022/01/03 01:20:06;;;;;;;102.32;24.98;;;;;;;2.57;100.00;101149.44;6205615;23;20021;-84
2022/01/03 01:22:50;;;;;;;51.60;25.30;;;;;;;2.63;100.00;101163.06;6223093;23;20024;-86
2022/01/03 01:27:50;;;;;;;65.28;25.30;;;;;;;2.98;100.00;101159.06;6228004;23;20021;-88
2022/01/03 01:30:34;;;;;;;48.75;25.30;;;;;;;2.74;100.00;101161.47;6200090;23;20039;-84
2022/01/03 01:33:08;;;;;;;58.83;24.80;;;;;;;2.71;100.00;101151.19;6193297;23;20060;-87
2022/01/03 01:35:42;;;;;;;;;;;;;;;2.71;100.00;101148.56;6225690;23;20035;-81
2022/01/03 01:38:34;;;;;;;64.82;27.05;;;;;;;2.52;100.00;101125.31;6172875;23;19912;-88
2022/01/03 01:41:02;;;;;;;155.45;27.00;;;;;;;2.42;100.00;101112.94;6191009;23;20017;-88
2022/01/03 01:43:44;;;;;;;168.18;29.08;;;;;;;2.27;100.00;101109.50;6205660;23;20009;-84
2022/01/03 01:46:15;;;;;;;218.02;28.90;;;;;;;2.21;100.00;101099.41;6227370;23;20069;-84
2022/01/03 01:48:48;;;;;;;175.52;30.90;;;;;;;2.13;100.00;101092.97;6177944;23;20044;-87
2022/01/03 01:51:18;;;;;;;144.52;31.73;;;;;;;2.10;100.00;101083.53;6197870;23;20035;-88
2022/01/03 01:54:09;;;;;;;204.68;33.20;;;;;;;2.08;100.00;101081.03;6196875;23;20436;-86
2022/01/03 01:56:44;;;;;;;273.98;37.30;;;;;;;1.97;100.00;101077.38;6225685;23;20016;-84
2022/01/03 01:59:19;;;;;;;251.20;34.33;;;;;;;2.10;100.00;101078.31;6179122;23;20012;-82
2022/01/03 02:02:05;;;;;;;296.70;37.40;;;;;;;1.97;100.00;101085.22;6207664;23;20027;-86
2022/01/03 02:04:54;;;;;;;200.02;34.70;;;;;;;2.00;100.00;101085.88;6204858;23;20470;-85
2022/01/03 02:07:40;;;;;;;356.77;37.83;;;;;;;1.88;100.00;101064.88;6197054;23;20352;-87
2022/01/03 02:10:27;;;;;;;87.65;29.98;;;;;;;2.21;100.00;101072.41;6202261;23;20405;-88
2022/01/03 02:12:54;;;;;;;156.32;31.73;;;;;;;2.16;100.00;101080.53;6199052;23;20070;-88
2022/01/03 02:15:34;;;;;;;229.43;32.55;;;;;;;2.10;100.00;101070.47;6208853;23;20008;-88
2022/01/03 02:18:13;;;;;;;163.55;30.38;;;;;;;1.82;100.00;101052.19;6177187;23;20040;-89
2022/01/03 02:20:40;;;;;;;107.25;30.05;;;;;;;1.84;100.00;101053.78;6225536;23;20009;-86
2022/01/03 02:26:02;;;;;;;98.93;28.67;;;;;;;1.88;100.00;101067.50;6133689;23;20033;-86
2022/01/03 02:28:31;;;;;;;116.50;30.50;;;;;;;1.92;100.00;101061.97;6135152;23;20053;-88
2022/01/03 02:31:04;;;;;;;116.88;28.20;;;;;;;2.06;100.00;101053.28;6132475;23;20022;-86
2022/01/03 02:33:54;;;;;;;107.43;30.17;;;;;;;2.04;100.00;101053.41;6159797;23;20073;-83
2022/01/03 02:36:21;;;;;;;111.05;28.10;;;;;;;2.02;100.00;101057.03;6137665;23;20013;-89
2022/01/03 02:38:56;;;;;;;121.13;27.13;;;;;;;2.01;100.00;101050.13;6143688;23;20038;-87
2022/01/03 02:41:25;;;;;;;63.95;25.55;;;;;;;2.02;100.00;101057.03;6167105;23;20022;-89
2022/01/03 02:43:57;;;;;;;110.60;25.33;;;;;;;2.13;100.00;101054.59;6133367;23;20018;-86
2022/01/03 02:46:23;;;;;;;171.10;25.10;;;;;;;2.16;100.00;101050.94;6141139;23;20022;-91
2022/01/03 02:48:49;;;;;;;89.25;23.20;;;;;;;1.95;100.00;101056.59;6144832;23;20006;-91
2022/01/03 02:51:15;;;;;;;57.08;22.70;;;;;;;1.98;100.00;101050.31;6163590;23;20072;-89
2022/01/03 02:53:41;;;;;;;145.90;23.95;;;;;;;1.82;100.00;101057.41;6164694;23;20013;-89
2022/01/03 02:56:22;;;;;;;138.20;23.65;;;;;;;1.70;100.00;101055.53;6143206;23;20014;-89
2022/01/03 02:58:48;;;;;;;51.90;23.20;;;;;;;1.85;100.00;101060.69;6171394;23;20014;-83
2022/01/03 03:01:14;;;;;;;70.22;21.17;;;;;;;1.91;100.00;101042.03;6152109;23;20037;-84
2022/01/03 03:03:50;;;;;;;52.92;21.85;;;;;;;2.17;100.00;101032.53;6169820;23;20041;-89
2022/01/03 03:06:16;;;;;;;99.70;21.30;;;;;;;1.96;100.00;101015.56;6166666;23;20344;-89
2022/01/03 03:08:48;;;;;;;116.63;19.95;;;;;;;1.97;100.00;101001.59;6141375;23;20433;-83
2022/01/03 03:11:15;;;;;;;109.93;20.25;;;;;;;1.62;100.00;101001.16;6139096;23;20021;-84
2022/01/03 03:13:44;;;;;;;129.18;21.48;;;;;;;1.58;100.00;101019.72;6130320;23;20006;-87
2022/01/03 03:16:10;;;;;;;70.50;21.13;;;;;;;1.80;100.00;101025.31;6126977;23;20417;-87
2022/01/03 03:18:36;;;;;;;132.35;22.48;;;;;;;1.83;100.00;101009.44;6152645;23;20061;-86
2022/01/03 03:21:03;;;;;;;228.68;22.80;;;;;;;1.84;100.00;101016.34;6154693;23;20013;-84
2022/01/03 03:23:32;;;;;;;108.25;22.38;;;;;;;2.00;100.00;101032.75;6125707;23;20033;-86
2022/01/03 03:25:57;;;;;;;58.75;20.35;;;;;;;1.90;100.00;101044.72;6154121;23;20014;-85
2022/01/03 03:28:25;;;;;;;288.00;25.77;;;;;;;1.71;100.00;101057.22;6156339;23;20085;-84
2022/01/03 03:30:54;;;;;;;187.20;24.40;;;;;;;1.64;100.00;101051.53;6132250;23;20319;-87
2022/01/03 03:33:29;;;;;;;261.05;26.88;;;;;;;1.69;100.00;101048.66;6128834;23;20073;-85
2022/01/03 03:35:59;;;;;;;254.55;27.55;;;;;;;1.61;100.00;101056.09;6152680;23;20013;-85
2022/01/03 03:38:27;;;;;;;291.38;30.20;;;;;;;1.47;100.00;101039.47;6155235;23;20025;-84
2022/01/03 03:40:58;;;;;;;257.88;27.65;;;;;;;1.59;100.00;101047.53;6157609;23;20008;-83
2022/01/03 03:43:30;;;;;;;324.33;28.77;;;;;;;1.55;100.00;101032.03;6130725;23;20508;-84
2022/01/03 03:46:00;;;;;;;176.88;26.90;;;;;;;1.56;100.00;101033.69;6154497;23;20006;-84
2022/01/03 03:48:29;;;;;;;314.38;28.33;;;;;;;1.66;100.00;101001.81;6107117;23;20315;-86
2022/01/03 03:50:55;;;;;;;336.63;30.30;;;;;;;1.41;100.00;101002.44;6131933;23;20377;-86
2022/01/03 03:53:21;;;;;;;363.05;28.80;;;;;;;1.33;100.00;101000.28;6158100;23;20022;-86
2022/01/03 03:55:48;;;;;;;301.20;29.77;;;;;;;1.30;100.00;101005.69;6130042;23;20021;-84
2022/01/03 03:58:15;;;;;;;350.83;30.88;;;;;;;1.23;100.00;100993.09;6153680;23;20021;-85
2022/01/03 04:00:42;;;;;;;101.40;26.30;;;;;;;1.27;100.00;100991.97;6130280;23;20014;-84
2022/01/03 04:03:12;;;;;;;103.35;29.95;;;;;;;1.23;100.00;100993.94;6125039;23;20061;-84
2022/01/03 04:05:42;;;;;;;280.30;30.73;;;;;;;1.17;100.00;101015.19;6105737;23;20002;-87
2022/01/03 04:08:16;;;;;;;240.80;29.48;;;;;;;1.21;100.00;101001.03;6132700;23;20014;-84
2022/01/03 04:10:44;;;;;;;294.95;27.75;;;;;;;1.15;100.00;101001.41;6135926;23;20447;-83
2022/01/03 04:13:29;;;;;;;182.70;28.13;;;;;;;1.23;100.00;100985.25;6131958;23;20108;-86
2022/01/03 04:15:57;;;;;;;410.10;37.13;;;;;;;1.02;100.00;100959.53;6157423;23;20018;-85
2022/01/03 04:18:23;;;;;;;165.20;29.17;;;;;;;1.02;100.00;100949.09;6133772;23;20081;-84
2022/01/03 04:20:49;;;;;;;203.38;30.63;;;;;;;0.91;100.00;100938.44;6147429;23;20010;-84
2022/01/03 04:23:35;;;;;;;111.55;29.13;;;;;;;0.91;100.00;100950.63;6150558;23;20065;-87
2022/01/03 04:26:04;;;;;;;153.27;27.45;;;;;;;1.00;100.00;100947.47;6150469;23;20081;-85
2022/01/03 04:28:30;;;;;;;159.70;27.70;;;;;;;1.22;100.00;100952.28;6150419;23;20029;-83
2022/01/03 04:31:18;;;;;;;291.02;29.33;;;;;;;0.98;100.00;100954.56;6148287;23;20005;-85
2022/01/03 04:33:45;;;;;;;;;;;;;;;0.99;100.00;100941.41;6141842;23;20014;-83
2022/01/03 04:36:13;;;;;;;126.45;25.48;;;;;;;1.08;100.00;100947.88;6141173;23;19920;-85
2022/01/03 04:38:39;;;;;;;118.47;26.73;;;;;;;1.15;100.00;100970.06;6163396;23;20020;-88
2022/01/03 04:41:06;;;;;;;223.82;28.98;;;;;;;1.31;100.00;100994.31;6137881;23;20342;-86
2022/01/03 04:43:33;;;;;;;239.43;30.10;;;;;;;1.53;100.00;101002.53;6137547;23;20006;-85
2022/01/03 04:46:03;;;;;;;148.02;28.98;;;;;;;1.51;100.00;100999.19;6137484;23;20014;-86
2022/01/03 04:48:33;;;;;;;229.77;30.00;;;;;;;1.56;100.00;101001.50;6161647;23;20123;-87
2022/01/03 04:50:58;;;;;;;102.43;28.63;;;;;;;1.71;100.00;100984.91;6165505;23;20014;-85
2022/01/03 04:54:02;;;;;;;142.07;26.48;;;;;;;1.95;100.00;100961.66;6141635;23;20018;-83
2022/01/03 04:56:40;;;;;;;396.25;28.92;;;;;;;1.72;100.00;100975.31;6149880;23;20033;-83
2022/01/03 04:59:15;;;;;;;225.55;26.95;;;;;;;1.93;100.00;101002.69;6173260;23;20041;-83
2022/01/03 05:01:41;;;;;;;328.40;27.38;;;;;;;1.83;100.00;100999.81;6140437;23;20021;-86
2022/01/03 05:04:10;;;;;;;178.52;25.98;;;;;;;1.81;100.00;101001.69;6138071;23;20013;-85
2022/01/03 05:06:35;;;;;;;165.10;25.10;;;;;;;1.84;100.00;101006.75;6136600;23;20002;-88
2022/01/03 05:09:01;;;;;;;154.65;25.40;;;;;;;1.93;100.00;101007.94;6163218;23;20456;-87
2022/01/03 05:11:28;;;;;;;271.80;24.90;;;;;;;1.92;100.00;100995.81;6139707;23;20020;-86
2022/01/03 05:13:54;;;;;;;231.60;22.92;;;;;;;1.98;100.00;101003.28;6165575;23;20014;-85
2022/01/03 05:16:23;;;;;;;342.00;24.25;;;;;;;1.91;100.00;101010.66;6139721;23;20080;-91
2022/01/03 05:18:48;;;;;;;98.60;20.75;;;;;;;2.02;100.00;101004.75;6138857;23;20018;-86
2022/01/03 05:21:15;;;;;;;173.13;19.92;;;;;;;2.21;100.00;101005.28;6137839;23;20018;-85
2022/01/03 05:23:43;;;;;;;182.98;19.90;;;;;;;2.04;100.00;101000.28;6137564;23;20014;-86
2022/01/03 05:26:16;;;;;;;78.82;18.35;;;;;;;2.07;100.00;101003.53;6138504;23;20080;-87
2022/01/03 05:28:42;;;;;;;273.98;21.98;;;;;;;2.18;100.00;100997.63;6133315;23;20025;-85
2022/01/03 05:31:12;;;;;;;347.42;23.77;;;;;;;1.63;100.00;100986.31;6109790;23;20437;-87
2022/01/03 05:33:38;;;;;;;128.90;24.10;;;;;;;1.72;100.00;100978.75;6157274;23;20009;-85
2022/01/03 05:36:08;;;;;;;160.65;26.48;;;;;;;1.59;100.00;100979.59;6128511;23;20018;-86
2022/01/03 05:38:34;;;;;;;112.85;24.67;;;;;;;1.81;100.00;100959.91;6155565;23;20012;-87
2022/01/03 05:41:01;;;;;;;238.80;25.92;;;;;;;1.89;100.00;100960.22;6152920;23;20089;-87
2022/01/03 05:43:27;;;;;;;271.52;26.17;;;;;;;1.71;100.00;100973.63;6126874;23;20097;-87
2022/01/03 05:45:52;;;;;;;225.10;28.58;;;;;;;1.53;100.00;100965.97;6154313;23;20017;-86
2022/01/03 05:48:21;;;;;;;146.27;28.08;;;;;;;1.61;100.00;100967.28;6135007;23;20444;-84
2022/01/03 05:50:47;;;;;;;248.15;28.65;;;;;;;1.48;100.00;100988.09;6132229;23;20002;-88
2022/01/03 05:53:13;;;;;;;288.42;29.73;;;;;;;1.46;100.00;100990.78;6155506;23;20010;-87
2022/01/03 05:55:38;;;;;;;237.30;28.25;;;;;;;1.25;100.00;100965.97;6128390;23;20074;-87
2022/01/03 05:58:07;;;;;;;259.33;30.90;;;;;;;1.41;100.00;100943.22;6130884;23;20010;-89
2022/01/03 06:00:34;;;;;;;259.10;31.73;;;;;;;1.33;100.00;100932.41;6160022;23;20026;-85
2022/01/03 06:03:02;;;;;;;213.23;30.13;;;;;;;1.35;100.00;100941.00;6132801;23;20005;-86
2022/01/03 06:05:41;;;;;;;108.53;27.38;;;;;;;1.37;100.00;100946.94;6128951;23;20121;-87
2022/01/03 06:08:08;;;;;;;196.35;28.30;;;;;;;1.43;100.00;100938.75;6132148;23;20030;-84
2022/01/03 06:10:41;;;;;;;213.88;26.98;;;;;;;1.36;100.00;100937.44;6128047;23;20018;-88
2022/01/03 06:13:09;;;;;;;167.45;29.98;;;;;;;1.38;100.00;100932.97;6128546;23;20097;-86
2022/01/03 06:15:39;;;;;;;118.63;24.80;;;;;;;1.65;100.00;100938.28;6128597;23;20013;-86
2022/01/03 06:18:10;;;;;;;235.23;26.85;;;;;;;1.40;100.00;100943.31;6128964;23;20013;-86
2022/01/03 06:20:39;;;;;;;196.82;25.25;;;;;;;1.64;100.00;100946.19;6128741;23;20397;-88
2022/01/03 06:23:06;;;;;;;195.75;24.17;;;;;;;1.67;100.00;100946.00;6153876;23;20010;-85
2022/01/03 06:25:34;;;;;;;132.98;21.20;;;;;;;1.76;100.00;100945.41;6133032;23;20448;-89
2022/01/03 06:28:06;;;;;;;73.68;21.48;;;;;;;1.50;100.00;100924.38;6153352;23;20042;-86
2022/01/03 06:30:34;;;;;;;210.18;26.30;;;;;;;1.34;100.00;100934.09;6128759;23;20041;-88
2022/01/03 06:32:59;;;;;;;152.77;25.02;;;;;;;1.30;100.00;100913.47;6153698;23;20010;-85
2022/01/03 06:35:27;;;;;;;54.30;22.80;;;;;;;1.59;100.00;100907.31;6132237;23;20073;-86
2022/01/03 06:37:55;;;;;;;119.85;25.40;;;;;;;1.35;100.00;100920.09;6132725;23;20471;-85
2022/01/03 06:40:24;;;;;;;169.98;26.58;;;;;;;1.43;100.00;100937.88;6154668;23;20014;-84
2022/01/03 06:42:52;;;;;;;158.63;27.85;;;;;;;1.54;100.00;100951.16;6132274;23;20500;-87
2022/01/03 06:45:19;;;;;;;142.27;26.20;;;;;;;1.52;100.00;100943.38;6153676;23;20041;-86
2022/01/03 06:47:47;;;;;;;66.68;22.70;;;;;;;1.74;100.00;100942.06;6104789;23;20020;-87
2022/01/03 06:50:16;;;;;;;153.85;25.35;;;;;;;1.54;100.00;100941.53;6128457;23;20010;-85
2022/01/03 06:52:42;;;;;;;109.18;23.30;;;;;;;1.46;100.00;100932.47;6152564;23;20029;-86
2022/01/03 06:55:08;;;;;;;183.13;25.77;;;;;;;1.42;100.00;100917.97;6128454;23;20421;-86
2022/01/03 06:57:37;;;;;;;150.68;25.02;;;;;;;1.41;100.00;100917.13;6131031;23;20014;-83
2022/01/03 07:00:05;;;;;;;120.03;25.67;;;;;;;1.42;100.00;100924.03;6154732;23;20030;-85
2022/01/03 07:02:30;;;;;;;167.57;27.20;;;;;;;1.33;100.00;100927.19;6130385;23;20097;-87
2022/01/03 07:04:56;;;;;;;125.38;29.05;;;;;;;1.25;100.00;100931.19;6131617;23;20006;-86
2022/01/03 07:07:21;;;;;;;144.88;28.83;;;;;;;1.30;100.00;100940.41;6130981;23;20045;-83
2022/01/03 07:09:47;;;;;;;106.22;29.90;;;;;;;1.35;100.00;100946.22;6131553;23;20002;-84
2022/01/03 07:12:14;;;;;;;170.43;29.45;;;;;;;1.34;100.00;100936.69;6130141;23;20010;-84
2022/01/03 07:19:59;;;;;;;115.22;31.75;;;;;;;1.42;100.00;100933.63;6132354;23;20010;-86
2022/01/03 07:22:39;;;;;;;127.97;31.50;;;;;;;1.39;100.00;100926.78;6135955;23;20013;-84
2022/01/03 07:25:07;;;;;;;133.73;31.25;;;;;;;1.52;100.00;100939.97;6138684;23;20014;-85
2022/01/03 07:27:32;;;;;;;105.57;28.45;;;;;;;1.61;100.00;100944.63;6134866;23;20310;-88
2022/01/03 07:29:58;;;;;;;105.03;28.83;;;;;;;1.65;100.00;100953.09;6136029;23;20021;-89
2022/01/03 07:32:28;;;;;;;96.45;27.67;;;;;;;1.58;100.00;100944.81;6136382;23;20021;-87
2022/01/03 07:34:54;;;;;;;127.05;30.73;;;;;;;1.51;100.00;100940.88;6137561;23;20014;-89
2022/01/03 07:37:20;;;;;;;129.07;29.95;;;;;;;1.53;100.00;100944.22;6134127;23;20021;-87
2022/01/03 07:39:48;;;;;;;63.15;27.75;;;;;;;1.67;100.00;100935.53;6157969;23;20056;-86
2022/01/03 07:42:14;;;;;;;228.23;28.70;;;;;;;1.63;100.00;100944.50;6132902;23;20014;-87
2022/01/03 07:44:45;;;;;;;96.78;28.63;;;;;;;1.73;100.00;100940.38;6133172;23;20070;-84
2022/01/03 07:47:11;;;;;;;115.03;29.75;;;;;;;1.78;100.00;100920.06;6139882;23;20030;-84
2022/01/03 07:49:38;;;;;;;135.75;26.77;;;;;;;1.69;100.00;100926.66;6120640;23;20050;-83
2022/01/03 07:52:04;;;;;;;139.52;27.33;;;;;;;1.73;100.00;100925.56;6136730;23;20010;-84
2022/01/03 07:54:29;;;;;;;146.85;27.55;;;;;;;1.83;100.00;100925.81;6130233;23;20014;-86
2022/01/03 07:56:55;;;;;;;154.85;30.75;;;;;;;1.93;100.00;100926.91;6150786;23;20110;-83
2022/01/03 07:59:21;;;;;;;178.75;27.73;;;;;;;1.80;100.00;100920.78;6127969;23;20137;-85
2022/01/03 08:01:47;;;;;;;180.55;28.75;;;;;;;1.87;100.00;100929.91;6130907;23;20024;-86
2022/01/03 08:04:13;;;;;;;100.65;28.77;;;;;;;1.99;100.00;100942.19;6129763;23;20369;-86
2022/01/03 08:06:39;;;;;;;92.93;26.83;;;;;;;2.16;100.00;100947.19;6127805;23;20333;-84
2022/01/03 08:09:04;;;;;;;75.40;27.88;;;;;;;2.19;100.00;100947.00;6150665;23;20010;-84
2022/01/03 08:11:39;;;;;;;119.00;36.35;;;;;;;2.16;100.00;100959.44;6130467;23;20021;-86
2022/01/03 08:14:07;;;;;;;105.13;31.02;;;;;;;2.30;100.00;100968.06;6133724;23;20029;-85
2022/01/03 08:16:33;;;;;;;51.33;26.40;;;;;;;2.22;100.00;100959.06;6131992;23;20018;-86
2022/01/03 08:19:16;;;;;;;140.85;30.65;;;;;;;2.11;100.00;100974.56;6131931;23;20460;-85
2022/01/03 08:21:47;;;;;;;95.00;25.40;;;;;;;2.27;100.00;100989.19;6135682;23;20041;-85
2022/01/03 08:24:15;;;;;;;110.97;24.70;;;;;;;2.23;100.00;100982.47;6139800;23;20080;-85
2022/01/03 08:26:49;;;;;;;94.05;25.88;;;;;;;2.14;100.00;100987.44;6134909;23;20452;-86
2022/01/03 08:29:17;;;;;;;99.95;25.88;;;;;;;2.19;100.00;100975.75;6132863;23;20037;-84
2022/01/03 08:31:43;;;;;;;220.25;52.65;;;;;;;2.19;100.00;100986.22;6132910;23;20014;-87
2022/01/03 08:34:18;;;;;;;141.68;45.78;;;;;;;2.09;100.00;100999.03;6133476;23;20010;-85
2022/01/03 08:37:07;;;;;;;125.03;36.83;;;;;;;2.23;100.00;101007.78;6132211;23;20009;-87
2022/01/03 08:39:36;;;;;;;137.13;34.83;;;;;;;2.15;100.00;100995.22;6160801;23;20014;-86
2022/01/03 08:42:12;;;;;;;87.05;27.33;;;;;;;2.18;100.00;100984.56;6136871;23;20030;-86
2022/01/03 08:44:38;;;;;;;81.53;28.02;;;;;;;2.10;100.00;100992.03;6134272;23;20345;-88
2022/01/03 08:47:07;;;;;;;96.03;29.13;;;;;;;2.22;100.00;101001.72;6132578;23;20017;-85
2022/01/03 08:49:41;;;;;;;103.72;27.10;;;;;;;2.30;100.00;101004.69;6135646;23;20010;-86
2022/01/03 08:52:07;;;;;;;120.07;29.67;;;;;;;2.29;100.00;101018.69;6134385;23;20500;-89
2022/01/03 08:54:48;;;;;;;219.05;39.65;;;;;;;2.41;100.00;101038.00;6134793;23;20017;-88
2022/01/03 08:57:13;;;;;;;111.25;27.40;;;;;;;2.22;100.00;101033.09;6139055;23;19994;-87
2022/01/03 08:59:45;;;;;;;134.85;29.70;;;;;;;2.06;100.00;101007.06;6149529;23;20004;-90
2022/01/03 09:02:20;;;;;;;154.35;32.42;;;;;;;1.86;100.00;100996.16;6145773;23;20073;-90
2022/01/03 09:04:59;;;;;;;116.13;32.58;;;;;;;1.90;100.00;100995.06;6146771;23;20077;-88
2022/01/03 09:07:25;;;;;;;134.35;30.52;;;;;;;1.94;100.00;101030.53;6137763;23;20040;-89
2022/01/03 09:10:00;;;;;;;129.80;30.15;;;;;;;1.99;100.00;101036.28;6137465;23;20036;-93
2022/01/03 09:12:26;;;;;;;200.13;29.00;;;;;;;2.00;100.00;101045.81;6164811;23;20010;-90
2022/01/03 09:14:54;;;;;;;165.88;31.45;;;;;;;2.14;100.00;101040.59;6161766;23;20041;-90
2022/01/03 09:17:23;;;;;;;233.35;29.77;;;;;;;2.08;100.00;101033.13;6159486;23;20028;-90
2022/01/03 09:19:52;;;;;;;97.90;29.05;;;;;;;2.32;100.00;101036.81;6167362;23;20017;-89
2022/01/03 09:22:39;;;;;;;178.77;30.58;;;;;;;2.47;100.00;101043.69;6169329;23;20008;-89
2022/01/03 09:30:34;;;;;;;171.88;39.30;;;;;;;2.94;100.00;101031.91;6160622;23;20393;-88
2022/01/03 09:33:03;;;;;;;189.93;26.27;;;;;;;2.93;100.00;101035.47;6161293;23;20009;-90
2022/01/03 09:35:32;;;;;;;103.75;22.90;;;;;;;2.78;100.00;101036.50;6162520;23;20092;-88
2022/01/03 09:37:59;;;;;;;94.05;23.23;;;;;;;2.80;100.00;101031.97;6167729;23;20047;-86
2022/01/03 09:40:24;;;;;;;106.30;22.92;;;;;;;3.01;100.00;101020.09;6163224;23;20041;-86
2022/01/03 09:42:56;;;;;;;137.15;21.63;;;;;;;2.91;100.00;101011.19;6161169;23;20006;-89
2022/01/03 09:45:35;;;;;;;191.50;19.80;;;;;;;3.07;100.00;101017.91;6161287;23;20045;-86
2022/01/03 09:48:03;;;;;;;166.60;21.75;;;;;;;3.06;100.00;101020.63;6158106;23;20020;-86
2022/01/03 09:50:32;;;;;;;43.58;18.52;;;;;;;3.15;100.00;101014.78;6175424;23;20001;-84
2022/01/03 09:52:58;;;;;;;96.28;22.23;;;;;;;3.05;100.00;101029.41;6157682;23;20033;-86
2022/01/03 09:55:24;;;;;;;108.47;20.05;;;;;;;2.93;100.00;101040.72;6161356;23;20014;-86
2022/01/03 09:57:50;;;;;;;139.90;20.83;;;;;;;2.76;100.00;101044.44;6162515;23;20319;-86
2022/01/03 10:00:22;;;;;;;74.13;18.60;;;;;;;3.05;100.00;101042.50;6182529;23;20033;-85
2022/01/03 10:02:50;;;;;;;192.43;22.35;;;;;;;2.71;100.00;101029.97;6185477;23;20033;-85
2022/01/03 10:05:17;;;;;;;126.28;22.85;;;;;;;2.73;100.00;101025.47;6160310;23;20017;-86
2022/01/03 10:07:46;;;;;;;188.85;23.80;;;;;;;2.56;100.00;101032.63;6186884;23;20017;-87
2022/01/03 10:10:17;;;;;;;85.72;23.10;;;;;;;2.80;100.00;101018.91;6183438;23;20349;-85
2022/01/03 10:12:43;;;;;;;123.18;24.73;;;;;;;2.72;100.00;101015.97;6181929;23;20065;-86
2022/01/03 10:15:11;;;;;;;78.95;24.77;;;;;;;2.97;100.00;101005.53;6166914;23;20002;-87
2022/01/03 10:17:41;;;;;;;73.22;32.20;;;;;;;3.05;100.00;101013.72;6182168;23;20013;-86
2022/01/03 10:20:12;;;;;;;72.10;31.58;;;;;;;3.21;100.00;101011.75;6198889;23;20057;-90
2022/01/03 10:22:40;;;;;;;125.03;21.40;;;;;;;2.93;100.00;101025.84;6193665;23;20021;-88
2022/01/03 10:25:26;;;;;;;66.50;22.27;;;;;;;3.03;100.00;101010.38;6174817;23;20088;-88
2022/01/03 10:28:13;;;;;;;90.63;20.67;;;;;;;2.92;100.00;101002.38;6204231;23;19989;-87
2022/01/03 10:30:42;;;;;;;52.28;23.17;;;;;;;3.08;100.00;101003.06;6249394;22;20043;-89
2022/01/03 10:33:14;;;;;;;74.63;22.50;;;;;;;3.14;100.00;100997.41;6282504;22;20473;-89
2022/01/03 10:35:42;;;;;;;85.93;22.58;;;;;;;2.97;100.00;100984.59;6285392;22;20434;-87
2022/01/03 10:38:09;;;;;;;57.80;22.63;;;;;;;3.33;100.00;100987.34;6233823;22;20508;-86
2022/01/03 10:40:38;;;;;;;131.55;20.65;;;;;;;3.26;100.00;100980.84;6288990;22;20007;-87
2022/01/03 10:43:20;;;;;;;50.03;19.30;;;;;;;3.15;100.00;100980.72;6287474;22;20040;-87
2022/01/03 10:45:47;;;;;;;75.93;15.27;;;;;;;3.10;100.00;100973.19;6229671;22;20019;-87
2022/01/03 10:48:30;;;;;;;82.55;21.00;;;;;;;2.94;100.00;100963.84;6279964;22;20026;-87
2022/01/03 10:50:57;;;;;;;97.13;22.52;;;;;;;3.08;100.00;100963.78;6278811;22;20035;-87
2022/01/03 10:53:40;;;;;;;132.50;22.92;;;;;;;3.25;100.00;100942.50;6281754;22;20004;-88
2022/01/03 10:56:23;;;;;;;125.82;22.98;;;;;;;3.13;100.00;100925.84;6252802;22;20016;-88
2022/01/03 10:58:50;;;;;;;92.43;21.50;;;;;;;2.91;100.00;100927.41;6279775;22;20004;-88
2022/01/03 11:01:24;;;;;;;53.03;25.33;;;;;;;3.01;100.00;100938.94;6254512;22;20019;-86
2022/01/03 11:03:50;;;;;;;73.45;28.23;;;;;;;3.00;100.00;100942.50;6281451;22;20016;-88
2022/01/03 11:11:49;;;;;;;68.95;26.00;;;;;;;3.60;100.00;100934.81;6279291;22;20479;-86
2022/01/03 11:14:36;;;;;;;48.50;23.65;;;;;;;3.51;100.00;100922.38;6223792;22;20008;-88
2022/01/03 11:17:29;;;;;;;48.45;21.00;;;;;;;3.59;100.00;100920.88;6249936;22;20012;-88
2022/01/03 11:19:59;;;;;;;53.60;25.73;;;;;;;3.72;100.00;100910.34;6276157;22;20014;-86
2022/01/03 11:22:40;;;;;;;60.28;22.08;;;;;;;3.62;100.00;100906.72;6276251;22;20012;-85
2022/01/03 11:25:07;;;;;;;83.47;21.88;;;;;;;3.47;100.00;100900.78;6276336;22;20023;-87
2022/01/03 11:27:38;;;;;;;91.80;23.15;;;;;;;3.40;100.00;100904.78;6249502;22;20018;-88
2022/01/03 11:30:09;;;;;;;98.45;22.52;;;;;;;3.30;100.00;100900.28;6276298;22;20016;-87
2022/01/03 11:32:39;;;;;;;125.00;21.73;;;;;;;3.30;100.00;100887.19;6253925;22;20443;-83
2022/01/03 11:35:05;;;;;;;63.05;20.88;;;;;;;3.33;100.00;100877.34;6292112;22;20007;-88
2022/01/03 11:37:34;;;;;;;154.52;25.67;;;;;;;3.26;100.00;100881.31;6263180;22;20011;-86
2022/01/03 11:40:03;;;;;;;57.28;22.60;;;;;;;3.37;100.00;100884.03;6260475;22;20015;-88
2022/01/03 11:42:32;;;;;;;58.83;23.52;;;;;;;3.83;100.00;100878.16;6278872;22;20084;-84